createdAt,value
2023-03-31T00:01:20.223Z,97291.13
2023-03-31T00:03:52.886Z,97283.91
2023-03-31T00:06:23.438Z,97280.38
2023-03-31T00:08:54.500Z,97282.47
2023-03-31T00:11:25.560Z,97296.78
2023-03-31T00:13:55.794Z,97300.72
2023-03-31T00:16:28.219Z,97301.31
2023-03-31T00:18:59.638Z,97298.97
2023-03-31T00:21:34.259Z,97306.09
2023-03-31T00:24:05.929Z,97311.03
2023-03-31T00:26:37.888Z,97310.81
2023-03-31T00:29:09.409Z,97306.31
2023-03-31T00:31:42.492Z,97298.78
2023-03-31T00:34:14.647Z,97300.84
2023-03-31T00:36:47.989Z,97293.22
2023-03-31T00:39:20.151Z,97307.22
2023-03-31T00:41:50.980Z,97301.19
2023-03-31T00:44:24.982Z,97308.31
2023-03-31T00:46:59.151Z,97303.56
2023-03-31T00:49:40.880Z,97303.13
2023-03-31T00:52:15.068Z,97312.72
2023-03-31T00:54:47.432Z,97306.56
2023-03-31T00:57:18.240Z,97302.84
2023-03-31T00:59:51.068Z,97299.34
2023-03-31T01:02:22.118Z,97300.28
2023-03-31T01:04:57.646Z,97302.19
2023-03-31T01:07:31.522Z,97302.09
2023-03-31T01:10:04.036Z,97300.91
2023-03-31T01:12:36.661Z,97301.69
2023-03-31T01:15:08.243Z,97291.97
2023-03-31T01:17:38.731Z,97294.16
2023-03-31T01:20:16.732Z,97292.34
2023-03-31T01:23:23.254Z,97265.16
2023-03-31T01:26:27.188Z,97259.63
2023-03-31T01:29:06.226Z,97266.19
2023-03-31T01:32:04.526Z,97255.16
2023-03-31T01:34:59.249Z,97252.19
2023-03-31T01:38:04.775Z,97247.19
2023-03-31T01:41:07.326Z,97247.69
2023-03-31T01:43:42.127Z,97256.97
2023-03-31T01:46:21.883Z,97241.94
2023-03-31T01:48:59.652Z,97241.56
2023-03-31T01:51:35.657Z,97240.75
2023-03-31T01:54:18.117Z,97237.19
2023-03-31T01:56:54.772Z,97235.94
2023-03-31T01:59:31.884Z,97236.19
2023-03-31T02:02:03.217Z,97231.91
2023-03-31T02:04:38.619Z,97230.31
2023-03-31T02:07:14.800Z,97220.59
2023-03-31T02:09:47.912Z,97219.88
2023-03-31T02:12:21.219Z,97209.78
2023-03-31T02:14:53.834Z,97202.91
2023-03-31T02:17:30.743Z,97210.22
2023-03-31T02:20:07.393Z,97203.56
2023-03-31T02:22:40.592Z,97211.06
2023-03-31T02:25:14.207Z,97205.59
2023-03-31T02:27:48.718Z,97201.00
2023-03-31T02:30:18.835Z,97205.97
2023-03-31T02:32:50.135Z,97208.00
2023-03-31T02:35:23.543Z,97201.41
2023-03-31T02:37:54.081Z,97210.16
2023-03-31T02:40:27.876Z,97206.25
2023-03-31T02:42:59.861Z,97210.06
2023-03-31T02:45:41.522Z,97209.09
2023-03-31T02:48:16.644Z,97211.28
2023-03-31T02:51:09.647Z,97207.59
2023-03-31T02:53:48.380Z,97201.56
2023-03-31T02:56:29.100Z,97210.75
2023-03-31T02:59:14.145Z,97210.53
2023-03-31T03:02:04.006Z,97199.63
2023-03-31T03:05:03.801Z,97202.03
2023-03-31T03:07:39.516Z,97191.53
2023-03-31T03:10:13.480Z,97201.69
2023-03-31T03:12:50.414Z,97203.34
2023-03-31T03:15:26.698Z,97190.78
2023-03-31T03:17:58.463Z,97190.47
2023-03-31T03:20:29.100Z,97192.50
2023-03-31T03:22:59.622Z,97189.13
2023-03-31T03:25:30.547Z,97204.47
2023-03-31T03:28:01.522Z,97190.94
2023-03-31T03:30:33.789Z,97184.06
2023-03-31T03:33:04.209Z,97186.69
2023-03-31T03:35:34.607Z,97184.53
2023-03-31T03:38:05.282Z,97174.09
2023-03-31T03:40:35.330Z,97171.88
2023-03-31T03:43:05.924Z,97174.56
2023-03-31T03:45:38.703Z,97175.16
2023-03-31T03:48:11.695Z,97174.16
2023-03-31T03:50:41.863Z,97171.03
2023-03-31T03:53:12.551Z,97163.56
2023-03-31T03:55:43.181Z,97167.38
2023-03-31T03:58:14.357Z,97158.19
2023-03-31T04:00:46.768Z,97167.28
2023-03-31T04:03:17.185Z,97166.28
2023-03-31T04:05:50.214Z,97167.56
2023-03-31T04:08:20.914Z,97175.25
2023-03-31T04:10:52.676Z,97168.50
2023-03-31T04:13:28.007Z,97161.50
2023-03-31T04:16:01.261Z,97153.97
2023-03-31T04:18:32.591Z,97145.13
2023-03-31T04:21:05.885Z,97138.28
2023-03-31T04:23:39.269Z,97146.59
2023-03-31T04:26:09.681Z,97147.13
2023-03-31T04:28:47.076Z,97146.63
2023-03-31T04:31:25.700Z,97157.50
2023-03-31T04:34:01.874Z,97147.78
2023-03-31T04:36:33.504Z,97134.91
2023-03-31T04:39:03.733Z,97135.13
2023-03-31T04:41:33.776Z,97127.94
2023-03-31T04:44:04.389Z,97117.94
2023-03-31T04:46:41.338Z,97123.88
2023-03-31T04:49:12.098Z,97124.38
2023-03-31T04:51:43.908Z,97113.41
2023-03-31T04:54:14.340Z,97098.00
2023-03-31T04:56:44.939Z,97092.53
2023-03-31T04:59:17.094Z,97090.91
2023-03-31T05:01:51.196Z,97097.75
2023-03-31T05:04:23.545Z,97104.06
2023-03-31T05:06:54.461Z,97105.03
2023-03-31T05:09:25.655Z,97108.38
2023-03-31T05:11:55.524Z,97106.56
2023-03-31T05:14:25.733Z,97100.03
2023-03-31T05:16:59.697Z,97107.34
2023-03-31T05:19:30.756Z,97101.00
2023-03-31T05:22:01.941Z,97103.25
2023-03-31T05:24:32.863Z,97097.53
2023-03-31T05:27:04.303Z,97106.81
2023-03-31T05:29:34.741Z,97103.31
2023-03-31T05:32:12.313Z,97109.44
2023-03-31T05:34:44.344Z,97110.91
2023-03-31T05:37:14.866Z,97112.34
2023-03-31T05:39:45.171Z,97101.97
2023-03-31T05:42:15.966Z,97093.66
2023-03-31T05:44:46.043Z,97094.00
2023-03-31T05:47:20.394Z,97091.22
2023-03-31T05:49:51.739Z,97082.81
2023-03-31T05:52:23.140Z,97077.75
2023-03-31T05:54:53.621Z,97069.41
2023-03-31T05:57:23.941Z,97071.81
2023-03-31T05:59:54.290Z,97051.63
2023-03-31T06:02:26.848Z,97046.31
2023-03-31T06:04:57.939Z,97045.38
2023-03-31T06:07:28.636Z,97035.22
2023-03-31T06:09:59.225Z,97019.53
2023-03-31T06:12:30.776Z,97015.88
2023-03-31T06:15:03.152Z,97017.63
2023-03-31T06:17:35.612Z,97018.91
2023-03-31T06:20:24.013Z,97013.22
2023-03-31T06:22:58.635Z,97003.91
2023-03-31T06:25:34.530Z,96997.75
2023-03-31T06:28:11.791Z,96984.34
2023-03-31T06:30:43.554Z,96983.25
2023-03-31T06:33:16.919Z,96969.00
2023-03-31T06:35:47.567Z,96976.06
2023-03-31T06:38:18.567Z,96978.50
2023-03-31T06:40:49.309Z,96976.03
2023-03-31T06:43:20.055Z,96971.97
2023-03-31T06:45:52.610Z,96975.03
2023-03-31T06:48:27.617Z,96970.28
2023-03-31T06:51:03.541Z,96979.44
2023-03-31T06:53:35.603Z,96978.84
2023-03-31T06:56:07.331Z,96974.94
2023-03-31T06:58:38.059Z,96966.16
2023-03-31T07:01:09.398Z,96971.34
2023-03-31T07:03:41.932Z,96970.19
2023-03-31T07:06:12.852Z,96970.28
2023-03-31T07:08:43.451Z,96968.31
2023-03-31T07:11:13.811Z,96968.09
2023-03-31T07:13:50.438Z,96958.03
2023-03-31T07:16:21.144Z,96949.91
2023-03-31T07:18:55.187Z,96939.59
2023-03-31T07:21:25.491Z,96930.69
2023-03-31T07:23:56.502Z,96931.03
2023-03-31T07:26:27.371Z,96917.63
2023-03-31T07:28:59.658Z,96909.38
2023-03-31T07:31:29.785Z,96910.09
2023-03-31T07:34:07.030Z,96917.72
2023-03-31T07:36:37.539Z,96923.34
2023-03-31T07:39:09.154Z,96915.84
2023-03-31T07:41:39.811Z,96921.03
2023-03-31T07:44:10.416Z,96919.38
2023-03-31T07:46:41.084Z,96925.84
2023-03-31T07:49:16.284Z,96927.59
2023-03-31T07:51:46.951Z,96921.28
2023-03-31T07:54:17.504Z,96927.94
2023-03-31T07:56:48.414Z,96923.28
2023-03-31T07:59:18.765Z,96918.78
2023-03-31T08:01:53.333Z,96925.31
2023-03-31T08:04:25.560Z,96910.03
2023-03-31T08:06:55.772Z,96912.38
2023-03-31T08:09:26.232Z,96906.94
2023-03-31T08:11:56.930Z,96910.97
2023-03-31T08:14:40.063Z,96900.47
2023-03-31T08:17:17.321Z,96887.66
2023-03-31T08:19:50.989Z,96882.22
2023-03-31T08:22:20.820Z,96867.59
2023-03-31T08:24:51.592Z,96874.09
2023-03-31T08:27:22.241Z,96879.34
2023-03-31T08:29:52.537Z,96873.00
2023-03-31T08:32:26.752Z,96866.22
2023-03-31T08:34:59.739Z,96847.44
2023-03-31T08:37:32.190Z,96851.06
2023-03-31T08:40:04.940Z,96844.97
2023-03-31T08:42:39.479Z,96835.22
2023-03-31T08:45:17.778Z,96827.22
2023-03-31T08:47:52.420Z,96835.56
2023-03-31T08:50:31.858Z,96833.88
2023-03-31T08:53:07.152Z,96832.34
2023-03-31T08:55:43.961Z,96827.59
2023-03-31T08:58:20.404Z,96811.13
2023-03-31T09:00:55.810Z,96819.44
2023-03-31T09:03:33.694Z,96805.91
2023-03-31T09:06:09.522Z,96798.97
2023-03-31T09:08:40.963Z,96780.88
2023-03-31T09:11:23.671Z,96755.34
2023-03-31T09:14:14.035Z,96751.31
2023-03-31T09:16:47.415Z,96749.59
2023-03-31T09:19:21.959Z,96745.56
2023-03-31T09:21:54.882Z,96750.16
2023-03-31T09:24:30.915Z,96745.91
2023-03-31T09:27:04.704Z,96747.66
2023-03-31T09:29:43.244Z,96743.31
2023-03-31T09:32:18.278Z,96742.50
2023-03-31T09:34:50.930Z,96742.00
2023-03-31T09:37:22.514Z,96738.84
2023-03-31T09:39:54.897Z,96723.66
2023-03-31T09:42:25.112Z,96728.94
2023-03-31T09:44:56.770Z,96714.97
2023-03-31T09:47:34.288Z,96702.06
2023-03-31T09:50:08.143Z,96696.53
2023-03-31T09:52:42.253Z,96702.09
2023-03-31T09:55:38.384Z,96707.38
2023-03-31T09:58:15.701Z,96697.25
2023-03-31T10:00:59.366Z,96703.78
2023-03-31T10:03:29.974Z,96696.75
2023-03-31T10:06:00.759Z,96680.69
2023-03-31T10:08:34.260Z,96670.47
2023-03-31T10:11:11.992Z,96684.88
2023-03-31T10:13:49.451Z,96694.44
2023-03-31T10:16:25.888Z,96692.94
2023-03-31T10:18:59.007Z,96691.44
2023-03-31T10:21:30.906Z,96691.00
2023-03-31T10:24:02.892Z,96668.06
2023-03-31T10:26:33.204Z,96668.41
2023-03-31T10:29:03.783Z,96660.22
2023-03-31T10:31:38.210Z,96645.63
2023-03-31T10:34:09.770Z,96648.66
2023-03-31T10:36:42.855Z,96642.28
2023-03-31T10:39:18.817Z,96628.19
2023-03-31T10:41:54.047Z,96617.31
2023-03-31T10:44:37.001Z,96613.22
2023-03-31T10:47:12.366Z,96615.22
2023-03-31T10:49:44.259Z,96613.69
2023-03-31T10:52:21.540Z,96619.91
2023-03-31T10:54:57.189Z,96618.19
2023-03-31T10:57:34.845Z,96605.03
2023-03-31T11:00:18.864Z,96595.66
2023-03-31T11:03:31.003Z,96597.94
2023-03-31T11:06:05.359Z,96581.41
2023-03-31T11:08:45.702Z,96587.50
2023-03-31T11:11:26.474Z,96583.53
2023-03-31T11:14:02.765Z,96570.22
2023-03-31T11:16:39.660Z,96554.50
2023-03-31T11:19:21.950Z,96535.41
2023-03-31T11:21:59.530Z,96524.31
2023-03-31T11:24:43.929Z,96528.69
2023-03-31T11:27:33.591Z,96516.88
2023-03-31T11:30:07.712Z,96509.81
2023-03-31T11:32:50.884Z,96511.38
2023-03-31T11:35:40.199Z,96516.34
2023-03-31T11:38:24.164Z,96518.66
2023-03-31T11:41:02.787Z,96508.72
2023-03-31T11:43:38.087Z,96510.69
2023-03-31T11:46:12.910Z,96507.56
2023-03-31T11:48:47.687Z,96509.06
2023-03-31T11:51:21.452Z,96502.13
2023-03-31T11:53:53.247Z,96488.91
2023-03-31T11:56:24.872Z,96486.94
2023-03-31T11:58:59.244Z,96496.38
2023-03-31T12:01:35.481Z,96489.19
2023-03-31T12:04:08.533Z,96485.22
2023-03-31T12:06:47.405Z,96482.34
2023-03-31T12:09:21.728Z,96481.75
2023-03-31T12:11:58.048Z,96467.41
2023-03-31T12:14:36.978Z,96467.44
2023-03-31T12:17:15.579Z,96464.03
2023-03-31T12:19:50.215Z,96460.47
2023-03-31T12:22:26.818Z,96450.84
2023-03-31T12:24:58.791Z,96446.09
2023-03-31T12:27:33.675Z,96445.00
2023-03-31T12:37:45.110Z,96437.97
2023-03-31T12:40:20.861Z,96426.19
2023-03-31T12:43:19.550Z,96413.53
2023-03-31T12:45:56.051Z,96406.72
2023-03-31T12:48:45.706Z,96394.13
2023-03-31T12:51:26.811Z,96396.09
2023-03-31T12:54:09.942Z,96382.53
2023-03-31T12:57:08.471Z,96378.94
2023-03-31T12:59:40.113Z,96373.69
2023-03-31T13:02:39.369Z,96367.88
2023-03-31T13:05:44.182Z,96367.06
2023-03-31T13:08:37.949Z,96362.38
2023-03-31T13:11:08.670Z,96359.38
2023-03-31T13:13:47.621Z,96355.81
2023-03-31T13:16:25.554Z,96356.06
2023-03-31T13:18:58.920Z,96360.31
2023-03-31T13:21:30.026Z,96342.53
2023-03-31T13:24:03.460Z,96350.06
2023-03-31T13:26:49.339Z,96355.94
2023-03-31T13:29:25.870Z,96348.53
2023-03-31T13:32:24.377Z,96335.09
2023-03-31T13:35:04.179Z,96325.59
2023-03-31T13:38:03.851Z,96323.63
2023-03-31T13:41:11.820Z,96311.09
2023-03-31T13:44:12.120Z,96306.44
2023-03-31T13:46:58.729Z,96312.81
2023-03-31T13:50:05.109Z,96300.78
2023-03-31T13:52:42.364Z,96293.50
2023-03-31T13:55:46.946Z,96292.75
2023-03-31T13:58:35.005Z,96280.78
2023-03-31T14:01:33.624Z,96274.19
2023-03-31T14:04:16.460Z,96258.34
2023-03-31T14:06:52.448Z,96259.00
2023-03-31T14:09:27.264Z,96255.25
2023-03-31T14:11:59.519Z,96258.78
2023-03-31T14:14:30.205Z,96266.97
2023-03-31T14:17:03.081Z,96263.16
2023-03-31T14:19:49.125Z,96258.38
2023-03-31T14:22:32.196Z,96263.72
2023-03-31T14:25:10.009Z,96265.34
2023-03-31T14:27:49.177Z,96260.22
2023-03-31T14:30:30.737Z,96267.00
2023-03-31T14:33:16.991Z,96248.56
2023-03-31T14:35:55.635Z,96237.28
2023-03-31T14:38:28.829Z,96232.94
2023-03-31T14:41:01.812Z,96221.09
2023-03-31T14:43:34.535Z,96219.28
2023-03-31T14:46:08.552Z,96221.34
2023-03-31T14:48:45.654Z,96229.28
2023-03-31T14:51:18.269Z,96213.88
2023-03-31T14:53:49.837Z,96212.59
2023-03-31T14:56:25.621Z,96211.19
2023-03-31T14:58:56.735Z,96210.06
2023-03-31T15:01:35.114Z,96216.47
2023-03-31T15:04:09.607Z,96221.78
2023-03-31T15:06:42.273Z,96235.00
2023-03-31T15:09:25.370Z,96232.53
2023-03-31T15:12:00.629Z,96222.88
2023-03-31T15:14:32.690Z,96214.78
2023-03-31T15:17:03.276Z,96217.28
2023-03-31T15:19:35.867Z,96224.63
2023-03-31T15:22:14.814Z,96222.50
2023-03-31T15:24:50.649Z,96228.91
2023-03-31T15:27:37.212Z,96241.28
2023-03-31T15:30:10.328Z,96228.13
2023-03-31T15:32:41.821Z,96229.66
2023-03-31T15:35:23.721Z,96238.31
2023-03-31T15:37:56.521Z,96234.91
2023-03-31T15:40:30.850Z,96246.72
2023-03-31T15:43:20.559Z,96236.34
2023-03-31T15:45:56.664Z,96240.97
2023-03-31T15:48:30.794Z,96229.72
2023-03-31T15:51:09.681Z,96228.50
2023-03-31T15:53:47.096Z,96219.13
2023-03-31T15:56:34.993Z,96219.84
2023-03-31T15:59:08.949Z,96214.00
2023-03-31T16:01:43.582Z,96212.59
2023-03-31T16:04:16.538Z,96223.53
2023-03-31T16:06:50.653Z,96223.44
2023-03-31T16:09:27.219Z,96224.34
2023-03-31T16:12:02.173Z,96219.56
2023-03-31T16:14:34.334Z,96232.97
2023-03-31T16:17:08.533Z,96241.69
2023-03-31T16:19:44.240Z,96231.88
2023-03-31T16:22:18.147Z,96235.88
2023-03-31T16:24:57.217Z,96245.94
2023-03-31T16:27:29.303Z,96243.59
2023-03-31T16:30:12.644Z,96243.47
2023-03-31T16:33:03.093Z,96247.19
2023-03-31T16:35:35.267Z,96250.69
2023-03-31T16:38:08.163Z,96251.09
2023-03-31T16:40:40.544Z,96253.22
2023-03-31T16:43:16.790Z,96252.63
2023-03-31T16:45:49.406Z,96260.38
2023-03-31T16:48:21.126Z,96266.25
2023-03-31T16:50:54.053Z,96270.53
2023-03-31T16:53:27.114Z,96281.66
2023-03-31T16:55:58.676Z,96297.47
2023-03-31T16:58:32.694Z,96320.75
2023-03-31T17:01:03.797Z,96320.19
2023-03-31T17:03:34.910Z,96336.00
2023-03-31T17:06:11.330Z,96355.72
2023-03-31T17:08:42.284Z,96382.50
2023-03-31T17:11:14.928Z,96396.19
2023-03-31T17:13:49.256Z,96409.38
2023-03-31T17:16:27.047Z,96414.31
2023-03-31T17:19:07.497Z,96415.00
2023-03-31T17:21:39.307Z,96421.63
2023-03-31T17:24:11.094Z,96427.94
2023-03-31T17:26:41.683Z,96434.63
2023-03-31T17:29:15.523Z,96433.50
2023-03-31T17:31:51.755Z,96426.63
2023-03-31T17:34:23.164Z,96440.59
2023-03-31T17:36:56.048Z,96439.16
2023-03-31T17:39:28.361Z,96421.91
2023-03-31T17:41:59.826Z,96377.69
2023-03-31T17:44:31.783Z,96372.16
2023-03-31T17:47:02.413Z,96379.34
2023-03-31T17:49:32.900Z,96369.28
2023-03-31T17:52:03.529Z,96381.44
2023-03-31T17:54:33.548Z,96385.00
2023-03-31T17:57:04.019Z,96394.84
2023-03-31T17:59:37.557Z,96415.50
2023-03-31T18:02:10.360Z,96411.06
2023-03-31T18:04:41.167Z,96406.38
2023-03-31T18:07:12.079Z,96410.56
2023-03-31T18:09:42.958Z,96396.66
2023-03-31T18:12:18.013Z,96396.34
2023-03-31T18:14:49.676Z,96403.16
2023-03-31T18:17:19.963Z,96407.28
2023-03-31T18:19:50.751Z,96401.72
2023-03-31T18:22:22.373Z,96392.94
2023-03-31T18:24:52.692Z,96399.00
2023-03-31T18:27:25.088Z,96398.59
2023-03-31T18:29:57.599Z,96396.75
2023-03-31T18:32:27.896Z,96400.44
2023-03-31T18:34:59.278Z,96399.47
2023-03-31T18:37:29.838Z,96386.66
2023-03-31T18:39:59.938Z,96384.41
2023-03-31T18:42:30.624Z,96375.06
2023-03-31T18:45:03.340Z,96357.16
2023-03-31T18:47:33.947Z,96367.25
2023-03-31T18:50:05.307Z,96374.22
2023-03-31T18:52:37.482Z,96392.66
2023-03-31T18:55:08.923Z,96407.69
2023-03-31T18:57:39.883Z,96403.38
2023-03-31T19:00:16.029Z,96385.28
2023-03-31T19:02:46.256Z,96404.66
2023-03-31T19:05:17.514Z,96408.59
2023-03-31T19:07:48.129Z,96401.34
2023-03-31T19:10:18.776Z,96393.19
2023-03-31T19:12:49.453Z,96394.09
2023-03-31T19:15:21.014Z,96383.66
2023-03-31T19:17:51.306Z,96383.47
2023-03-31T19:20:21.984Z,96370.13
2023-03-31T19:22:53.965Z,96367.19
2023-03-31T19:25:24.523Z,96370.88
2023-03-31T19:27:54.880Z,96371.19
2023-03-31T19:30:29.044Z,96360.06
2023-03-31T19:33:02.097Z,96361.34
2023-03-31T19:35:32.797Z,96370.78
2023-03-31T19:38:02.785Z,96364.91
2023-03-31T19:40:32.956Z,96368.31
2023-03-31T19:43:03.033Z,96370.69
2023-03-31T19:45:36.511Z,96369.94
2023-03-31T19:48:07.615Z,96367.31
2023-03-31T19:50:37.777Z,96367.53
2023-03-31T19:53:08.572Z,96355.50
2023-03-31T19:55:40.495Z,96366.75
2023-03-31T19:58:10.690Z,96356.59
2023-03-31T20:00:42.677Z,96360.38
2023-03-31T20:03:12.885Z,96352.91
2023-03-31T20:05:43.635Z,96355.63
2023-03-31T20:08:20.122Z,96349.88
2023-03-31T20:10:50.337Z,96349.44
2023-03-31T20:13:21.042Z,96343.38
2023-03-31T20:16:02.289Z,96340.25
2023-03-31T20:18:32.990Z,96340.78
2023-03-31T20:21:09.106Z,96345.75
2023-03-31T20:23:40.831Z,96347.03
2023-03-31T20:26:12.379Z,96353.56
2023-03-31T20:28:43.483Z,96353.88
2023-03-31T20:31:16.670Z,96348.25
2023-03-31T20:33:48.409Z,96349.66
2023-03-31T20:36:21.079Z,96342.94
2023-03-31T20:38:52.596Z,96337.84
2023-03-31T20:41:26.689Z,96342.50
2023-03-31T20:43:58.392Z,96336.78
2023-03-31T20:46:30.018Z,96342.94
2023-03-31T20:49:01.161Z,96337.06
2023-03-31T20:51:36.530Z,96325.59
2023-03-31T20:54:08.877Z,96327.03
2023-03-31T20:56:41.812Z,96328.75
2023-03-31T20:59:13.823Z,96325.72
2023-03-31T21:01:50.120Z,96320.63
2023-03-31T21:04:22.499Z,96319.84
2023-03-31T21:06:54.907Z,96329.31
2023-03-31T21:09:26.032Z,96325.19
2023-03-31T21:11:56.775Z,96315.09
2023-03-31T21:14:28.841Z,96309.03
2023-03-31T21:17:01.399Z,96310.13
2023-03-31T21:19:32.053Z,96313.72
2023-03-31T21:22:01.960Z,96310.34
2023-03-31T21:24:32.258Z,96304.94
2023-03-31T21:27:03.153Z,96298.66
2023-03-31T21:29:33.570Z,96303.75
2023-03-31T21:32:07.194Z,96310.66
2023-03-31T21:34:37.927Z,96302.44
2023-03-31T21:37:09.277Z,96306.53
2023-03-31T21:39:39.718Z,96306.88
2023-03-31T21:42:09.822Z,96310.22
2023-03-31T21:44:40.814Z,96313.81
2023-03-31T21:47:14.114Z,96311.97
2023-03-31T21:49:44.064Z,96305.66
2023-03-31T21:52:16.200Z,96310.34
2023-03-31T21:54:48.553Z,96301.13
2023-03-31T21:57:18.356Z,96304.19
2023-03-31T21:59:50.054Z,96300.19
2023-03-31T22:02:23.978Z,96296.81
2023-03-31T22:04:56.768Z,96291.84
2023-03-31T22:07:27.665Z,96298.53
2023-03-31T22:09:59.035Z,96301.31
2023-03-31T22:12:30.225Z,96297.13
2023-03-31T22:15:05.204Z,96301.31
2023-03-31T22:17:36.648Z,96306.28
2023-03-31T22:20:09.459Z,96310.00
2023-03-31T22:22:42.520Z,96308.47
2023-03-31T22:25:12.911Z,96318.97
2023-03-31T22:27:43.943Z,96317.78
2023-03-31T22:30:15.328Z,96313.38
2023-03-31T22:32:47.390Z,96316.28
2023-03-31T22:35:18.409Z,96313.69
2023-03-31T22:37:52.463Z,96313.69
2023-03-31T22:40:23.995Z,96308.47
2023-03-31T22:42:57.657Z,96308.91
2023-03-31T22:45:27.778Z,96306.34
2023-03-31T22:48:02.398Z,96300.38
2023-03-31T22:50:38.206Z,96305.78
2023-03-31T22:53:11.848Z,96304.38
2023-03-31T22:55:54.075Z,96311.41
2023-03-31T22:58:25.003Z,96301.13
2023-03-31T23:01:00.057Z,96310.75
2023-03-31T23:03:32.328Z,96304.56
2023-03-31T23:06:06.497Z,96305.75
2023-03-31T23:08:41.695Z,96300.66
2023-03-31T23:11:14.904Z,96295.69
2023-03-31T23:13:44.602Z,96304.88
2023-03-31T23:16:18.835Z,96297.84
2023-03-31T23:18:51.843Z,96290.06
2023-03-31T23:21:24.049Z,96303.28
2023-03-31T23:23:55.741Z,96295.06
2023-03-31T23:26:28.315Z,96298.97
2023-03-31T23:28:59.954Z,96307.59
2023-03-31T23:31:32.166Z,96312.00
2023-03-31T23:34:04.327Z,96316.56
2023-03-31T23:36:34.949Z,96301.13
2023-03-31T23:39:07.285Z,96310.84
2023-03-31T23:41:37.707Z,96300.47
2023-03-31T23:44:12.537Z,96297.56
2023-03-31T23:46:44.904Z,96309.13
2023-03-31T23:49:16.961Z,96308.06
2023-03-31T23:51:46.682Z,96307.19
2023-03-31T23:54:16.931Z,96300.59
2023-03-31T23:56:47.636Z,96299.72
2023-03-31T23:59:17.906Z,96293.50
